sensor_id;sensor_type;location;lat;lon;timestamp;P1;durP1;ratioP1;P2;durP2;ratioP2
26530;SDS011;14201;43.188;24.160;2022-12-08T00:01:03;33.45;;;19.50;;
26530;SDS011;14201;43.188;24.160;2022-12-08T00:03:32;35.58;;;19.30;;
26530;SDS011;14201;43.188;24.160;2022-12-08T00:05:58;33.92;;;19.40;;
26530;SDS011;14201;43.188;24.160;2022-12-08T00:08:42;31.90;;;18.83;;
26530;SDS011;14201;43.188;24.160;2022-12-08T00:11:26;36.75;;;19.35;;
26530;SDS011;14201;43.188;24.160;2022-12-08T00:13:52;34.35;;;18.65;;
26530;SDS011;14201;43.188;24.160;2022-12-08T00:16:17;30.17;;;18.27;;
26530;SDS011;14201;43.188;24.160;2022-12-08T00:18:43;32.55;;;18.50;;
26530;SDS011;14201;43.188;24.160;2022-12-08T00:21:08;32.22;;;19.70;;
26530;SDS011;14201;43.188;24.160;2022-12-08T00:23:34;39.15;;;21.58;;
26530;SDS011;14201;43.188;24.160;2022-12-08T00:26:03;35.67;;;21.25;;
26530;SDS011;14201;43.188;24.160;2022-12-08T00:28:29;30.17;;;15.93;;
26530;SDS011;14201;43.188;24.160;2022-12-08T00:30:55;35.13;;;19.73;;
26530;SDS011;14201;43.188;24.160;2022-12-08T00:33:21;34.95;;;19.75;;
26530;SDS011;14201;43.188;24.160;2022-12-08T00:35:47;31.38;;;20.25;;
26530;SDS011;14201;43.188;24.160;2022-12-08T00:38:12;34.78;;;18.67;;
26530;SDS011;14201;43.188;24.160;2022-12-08T00:40:42;33.80;;;19.90;;
26530;SDS011;14201;43.188;24.160;2022-12-08T00:43:11;32.15;;;18.73;;
26530;SDS011;14201;43.188;24.160;2022-12-08T00:45:37;35.50;;;19.30;;
26530;SDS011;14201;43.188;24.160;2022-12-08T00:48:03;33.75;;;19.10;;
26530;SDS011;14201;43.188;24.160;2022-12-08T00:50:28;33.53;;;18.23;;
26530;SDS011;14201;43.188;24.160;2022-12-08T00:52:54;34.50;;;19.27;;
26530;SDS011;14201;43.188;24.160;2022-12-08T00:55:20;33.92;;;18.92;;
26530;SDS011;14201;43.188;24.160;2022-12-08T00:57:45;30.42;;;18.45;;
26530;SDS011;14201;43.188;24.160;2022-12-08T01:00:11;36.45;;;18.90;;
26530;SDS011;14201;43.188;24.160;2022-12-08T01:02:37;30.25;;;17.75;;
26530;SDS011;14201;43.188;24.160;2022-12-08T01:05:02;32.83;;;18.10;;
26530;SDS011;14201;43.188;24.160;2022-12-08T01:07:28;32.50;;;18.10;;
26530;SDS011;14201;43.188;24.160;2022-12-08T01:09:54;37.88;;;19.67;;
26530;SDS011;14201;43.188;24.160;2022-12-08T01:12:19;36.35;;;20.33;;
26530;SDS011;14201;43.188;24.160;2022-12-08T01:14:45;40.33;;;21.13;;
26530;SDS011;14201;43.188;24.160;2022-12-08T01:17:10;37.15;;;21.02;;
26530;SDS011;14201;43.188;24.160;2022-12-08T01:19:36;35.92;;;20.02;;
26530;SDS011;14201;43.188;24.160;2022-12-08T01:22:01;36.15;;;19.55;;
26530;SDS011;14201;43.188;24.160;2022-12-08T01:24:27;37.60;;;20.38;;
26530;SDS011;14201;43.188;24.160;2022-12-08T01:26:53;34.42;;;19.55;;
26530;SDS011;14201;43.188;24.160;2022-12-08T01:29:18;34.92;;;19.50;;
26530;SDS011;14201;43.188;24.160;2022-12-08T01:31:44;33.90;;;19.63;;
26530;SDS011;14201;43.188;24.160;2022-12-08T01:34:09;39.40;;;19.25;;
26530;SDS011;14201;43.188;24.160;2022-12-08T01:36:36;37.08;;;19.52;;
26530;SDS011;14201;43.188;24.160;2022-12-08T01:39:03;19.88;;;10.32;;
26530;SDS011;14201;43.188;24.160;2022-12-08T01:41:31;12.05;;;8.25;;
26530;SDS011;14201;43.188;24.160;2022-12-08T01:46:37;16.05;;;10.02;;
26530;SDS011;14201;43.188;24.160;2022-12-08T01:49:14;16.83;;;11.60;;
26530;SDS011;14201;43.188;24.160;2022-12-08T01:51:45;19.40;;;11.70;;
26530;SDS011;14201;43.188;24.160;2022-12-08T01:54:21;17.05;;;11.07;;
26530;SDS011;14201;43.188;24.160;2022-12-08T01:56:51;19.30;;;11.95;;
26530;SDS011;14201;43.188;24.160;2022-12-08T01:59:18;17.25;;;12.27;;
26530;SDS011;14201;43.188;24.160;2022-12-08T02:01:44;19.42;;;12.95;;
26530;SDS011;14201;43.188;24.160;2022-12-08T02:04:10;16.27;;;11.88;;
26530;SDS011;14201;43.188;24.160;2022-12-08T02:06:37;18.05;;;12.02;;
26530;SDS011;14201;43.188;24.160;2022-12-08T02:09:05;19.83;;;11.75;;
26530;SDS011;14201;43.188;24.160;2022-12-08T02:11:31;16.73;;;11.18;;
26530;SDS011;14201;43.188;24.160;2022-12-08T02:13:57;17.85;;;11.18;;
26530;SDS011;14201;43.188;24.160;2022-12-08T02:16:33;13.27;;;8.63;;
26530;SDS011;14201;43.188;24.160;2022-12-08T02:19:19;15.25;;;8.82;;
26530;SDS011;14201;43.188;24.160;2022-12-08T02:36:13;23.30;;;13.05;;
26530;SDS011;14201;43.188;24.160;2022-12-08T02:41:40;18.02;;;11.02;;
26530;SDS011;14201;43.188;24.160;2022-12-08T02:44:36;23.20;;;12.70;;
26530;SDS011;14201;43.188;24.160;2022-12-08T02:47:08;19.55;;;12.48;;
26530;SDS011;14201;43.188;24.160;2022-12-08T02:54:38;19.70;;;12.27;;
26530;SDS011;14201;43.188;24.160;2022-12-08T02:57:11;19.65;;;11.73;;
26530;SDS011;14201;43.188;24.160;2022-12-08T02:59:54;17.58;;;11.88;;
26530;SDS011;14201;43.188;24.160;2022-12-08T03:05:12;20.77;;;12.52;;
26530;SDS011;14201;43.188;24.160;2022-12-08T03:07:53;18.35;;;11.13;;
26530;SDS011;14201;43.188;24.160;2022-12-08T03:13:40;19.73;;;12.45;;
26530;SDS011;14201;43.188;24.160;2022-12-08T03:16:13;18.80;;;11.80;;
26530;SDS011;14201;43.188;24.160;2022-12-08T03:18:44;20.15;;;12.40;;
26530;SDS011;14201;43.188;24.160;2022-12-08T03:23:42;17.80;;;11.67;;
26530;SDS011;14201;43.188;24.160;2022-12-08T03:26:17;18.63;;;11.60;;
